Time;durP1;ratioP1;P1;durP2;ratioP2;P2;SDS_P1;SDS_P2;PMS_P1;PMS_P2;Temp;Humidity;BMP_temperature;BMP_pressure;BME280_temperature;BME280_humidity;BME280_pressure;Samples;Min_cycle;Max_cycle;Signal;HPM_P1;HPM_P2
2023/01/11 00:02:13;;;;;;;3.08;1.60;;;12.90;97.90;;;;;;5036475;28;20112;-62
2023/01/11 00:04:39;;;;;;;3.22;1.65;;;12.40;98.80;;;;;;5035949;28;20411;-71
2023/01/11 00:07:05;;;;;;;3.00;1.80;;;;;;;;;;5027987;28;20037;-71
2023/01/11 00:09:31;;;;;;;3.42;1.65;;;12.70;97.70;;;;;;5036008;28;20102;-71
2023/01/11 00:11:57;;;;;;;3.45;1.70;;;12.90;98.80;;;;;;5051210;28;20502;-71
2023/01/11 00:14:23;;;;;;;3.60;1.80;;;12.90;99.10;;;;;;5056560;28;20041;-70
2023/01/11 00:16:49;;;;;;;2.22;1.50;;;13.10;98.90;;;;;;5055951;28;20127;-71
2023/01/11 00:19:15;;;;;;;2.97;1.50;;;13.00;98.80;;;;;;5053840;28;20133;-72
2023/01/11 00:21:41;;;;;;;3.05;1.73;;;13.10;98.80;;;;;;5053731;28;20121;-72
2023/01/11 00:24:06;;;;;;;3.28;1.90;;;13.10;99.20;;;;;;5038285;28;20052;-72
2023/01/11 00:26:32;;;;;;;3.45;1.58;;;13.00;99.00;;;;;;5055095;28;20040;-72
2023/01/11 00:28:58;;;;;;;3.63;1.60;;;;;;;;;;5054691;28;20055;-71
2023/01/11 00:31:24;;;;;;;2.95;1.60;;;;;;;;;;5055033;28;20057;-73
2023/01/11 00:33:50;;;;;;;3.20;1.80;;;13.20;99.10;;;;;;5052249;28;20053;-71
2023/01/11 00:36:16;;;;;;;3.90;1.50;;;;;;;;;;5034318;28;20043;-72
2023/01/11 00:38:42;;;;;;;2.85;1.60;;;13.00;98.90;;;;;;5036704;28;20047;-69
2023/01/11 00:49:22;;;;;;;2.92;1.48;;;13.00;99.30;;;;;;5043403;28;20058;-71
2023/01/11 00:51:48;;;;;;;2.38;1.45;;;12.90;99.30;;;;;;5055256;28;20053;-71
2023/01/11 00:54:13;;;;;;;2.67;1.55;;;13.00;98.40;;;;;;5055775;28;20084;-71
2023/01/11 00:56:39;;;;;;;1.95;1.30;;;13.00;99.20;;;;;;5044388;28;20104;-72
2023/01/11 00:59:05;;;;;;;3.80;1.58;;;13.00;99.60;;;;;;5034812;28;20503;-70
2023/01/11 01:01:31;;;;;;;2.50;1.38;;;13.00;99.50;;;;;;5035136;28;20049;-71
2023/01/11 01:03:58;;;;;;;2.40;1.40;;;12.60;99.30;;;;;;5033862;28;20053;-72
2023/01/11 01:06:24;;;;;;;2.55;1.45;;;13.20;98.60;;;;;;5054545;28;20045;-71
2023/01/11 01:08:50;;;;;;;2.67;1.40;;;12.80;99.60;;;;;;5054132;28;20063;-72
2023/01/11 01:11:15;;;;;;;1.65;1.23;;;13.00;99.80;;;;;;5054981;28;20037;-71
2023/01/11 01:16:25;;;;;;;2.58;1.33;;;12.90;98.70;;;;;;5050274;28;20403;-71
2023/01/11 01:18:52;;;;;;;2.20;1.40;;;;;;;;;;5024105;28;20598;-65
2023/01/11 01:21:18;;;;;;;2.03;1.30;;;13.30;99.90;;;;;;5043352;28;20052;-71
2023/01/11 01:23:44;;;;;;;2.20;1.38;;;;;;;;;;5049257;28;20041;-73
2023/01/11 01:26:10;;;;;;;2.28;1.30;;;;;;;;;;5034613;28;20049;-64
2023/01/11 01:28:36;;;;;;;2.63;1.30;;;;;;;;;;5038027;28;20116;-73
2023/01/11 01:31:02;;;;;;;3.25;1.52;;;13.10;99.90;;;;;;5031799;28;20053;-72
2023/01/11 01:33:28;;;;;;;3.17;1.40;;;12.90;99.90;;;;;;5034465;28;20050;-68
2023/01/11 01:35:54;;;;;;;2.08;1.30;;;;;;;;;;5034477;28;20106;-67
2023/01/11 01:38:20;;;;;;;2.10;1.10;;;13.10;98.90;;;;;;5015106;28;20549;-66
2023/01/11 01:40:47;;;;;;;2.33;1.30;;;13.10;99.80;;;;;;5032538;28;20117;-71
2023/01/11 01:43:15;;;;;;;1.83;1.20;;;13.30;99.90;;;;;;5034312;28;20483;-71
2023/01/11 01:45:40;;;;;;;2.20;1.23;;;13.20;99.90;;;;;;5031997;28;20502;-72
2023/01/11 01:48:07;;;;;;;1.63;1.27;;;13.20;99.80;;;;;;5022733;28;20044;-66
2023/01/11 01:50:47;;;;;;;1.83;1.20;;;13.10;98.00;;;;;;5025457;28;20049;-71
2023/01/11 01:53:16;;;;;;;2.55;1.60;;;13.10;99.90;;;;;;5032485;28;20132;-68
2023/01/11 01:55:47;;;;;;;1.83;1.20;;;13.20;98.70;;;;;;5020962;28;20403;-69
2023/01/11 01:58:15;;;;;;;1.77;1.17;;;;;;;;;;5033081;28;20407;-71
2023/01/11 02:00:42;;;;;;;2.25;1.10;;;13.10;98.80;;;;;;5033373;28;20435;-71
2023/01/11 02:03:11;;;;;;;2.03;1.30;;;13.10;98.70;;;;;;5031913;28;20049;-66
2023/01/11 02:05:37;;;;;;;1.60;1.00;;;;;;;;;;5016514;28;20099;-73
2023/01/11 02:08:04;;;;;;;2.17;1.33;;;12.80;99.90;;;;;;5034183;28;20107;-63
2023/01/11 02:10:30;;;;;;;2.15;1.20;;;13.10;99.90;;;;;;5030855;28;20044;-71
2023/01/11 02:13:07;;;;;;;3.83;1.40;;;13.20;98.20;;;;;;5015196;28;20554;-71
2023/01/11 02:15:34;;;;;;;1.58;1.00;;;13.10;99.50;;;;;;5034444;28;20045;-70
2023/01/11 02:17:59;;;;;;;1.40;1.02;;;13.00;99.20;;;;;;5018126;28;20476;-70
2023/01/11 02:20:34;;;;;;;1.13;0.93;;;13.30;99.30;;;;;;5015725;28;20052;-71
2023/01/11 02:23:06;;;;;;;2.50;1.25;;;13.20;99.90;;;;;;5013020;28;20053;-71
2023/01/11 02:25:42;;;;;;;2.10;1.30;;;;;;;;;;5013069;28;20081;-71
2023/01/11 02:28:44;;;;;;;2.05;1.30;;;13.20;99.20;;;;;;5024070;28;20054;-62
2023/01/11 02:31:20;;;;;;;2.25;1.30;;;13.20;99.30;;;;;;5000704;28;20128;-71
2023/01/11 02:34:28;;;;;;;1.83;0.95;;;13.30;98.50;;;;;;5032681;28;20133;-70
2023/01/11 02:37:18;;;;;;;3.30;1.17;;;13.20;98.50;;;;;;5022712;28;20479;-71
2023/01/11 02:39:50;;;;;;;2.72;1.08;;;13.40;99.90;;;;;;5029588;28;20104;-71
2023/01/11 02:45:55;;;;;;;2.55;1.20;;;13.40;98.50;;;;;;5025021;28;20128;-62
2023/01/11 02:48:46;;;;;;;1.40;0.98;;;13.30;99.90;;;;;;5029871;28;20060;-71
2023/01/11 02:51:16;;;;;;;2.90;1.17;;;13.30;99.90;;;;;;5027654;28;20117;-67
2023/01/11 02:53:49;;;;;;;1.70;1.00;;;13.30;99.90;;;;;;5013005;28;20132;-71
2023/01/11 02:56:20;;;;;;;2.78;1.27;;;13.30;99.90;;;;;;5014131;28;20045;-70
2023/01/11 02:58:47;;;;;;;2.63;1.25;;;13.40;99.10;;;;;;5013214;28;20415;-72
2023/01/11 03:01:13;;;;;;;2.55;1.20;;;;;;;;;;5029124;28;20125;-70
2023/01/11 03:03:39;;;;;;;1.65;1.10;;;;;;;;;;5028645;28;20045;-69
2023/01/11 03:06:05;;;;;;;1.92;1.17;;;13.00;99.90;;;;;;5030715;28;20096;-70
2023/01/11 03:09:09;;;;;;;3.33;1.17;;;13.40;98.80;;;;;;5028895;28;20092;-71
2023/01/11 03:14:43;;;;;;;3.97;1.48;;;13.40;99.90;;;;;;5036346;28;20046;-71
2023/01/11 03:17:09;;;;;;;2.53;1.10;;;13.40;99.90;;;;;;5035917;28;20052;-63
2023/01/11 03:19:39;;;;;;;2.22;1.23;;;;;;;;;;5022508;28;20042;-64
2023/01/11 03:22:17;;;;;;;1.58;1.00;;;13.40;99.90;;;;;;5017195;28;20045;-64
2023/01/11 03:24:46;;;;;;;1.67;0.88;;;13.50;99.90;;;;;;5031066;28;20049;-72
2023/01/11 03:27:31;;;;;;;2.20;1.20;;;13.60;99.90;;;;;;5029447;28;20503;-70
2023/01/11 03:30:02;;;;;;;1.25;0.95;;;13.60;99.90;;;;;;5035769;28;20128;-70
2023/01/11 03:32:44;;;;;;;1.63;0.93;;;;;;;;;;5052903;28;20053;-70
2023/01/11 03:35:45;;;;;;;2.25;1.20;;;13.40;98.50;;;;;;5037832;28;20088;-71
2023/01/11 03:38:24;;;;;;;2.83;1.15;;;13.50;98.70;;;;;;5014109;28;20057;-70
2023/01/11 03:40:51;;;;;;;1.83;1.23;;;;;;;;;;5020305;28;20053;-64
2023/01/11 03:43:17;;;;;;;1.52;0.90;;;13.50;99.50;;;;;;5008736;28;20099;-71
2023/01/11 03:45:57;;;;;;;2.40;1.15;;;13.60;99.90;;;;;;5038674;28;20107;-71
2023/01/11 03:48:33;;;;;;;1.73;1.00;;;13.90;99.70;;;;;;5038972;28;20049;-64
2023/01/11 03:51:00;;;;;;;2.05;1.05;;;13.70;99.60;;;;;;5054532;28;20094;-60
2023/01/11 03:53:26;;;;;;;2.00;1.17;;;13.50;99.50;;;;;;5026157;28;20139;-67
2023/01/11 03:55:55;;;;;;;2.47;0.95;;;13.60;99.90;;;;;;5002576;28;20093;-70
2023/01/11 03:58:21;;;;;;;1.38;0.90;;;13.80;99.90;;;;;;5018877;28;20053;-62
2023/01/11 04:00:47;;;;;;;1.55;0.73;;;13.30;99.90;;;;;;5002048;28;20068;-69
2023/01/11 04:03:13;;;;;;;1.33;0.90;;;13.80;99.90;;;;;;5019725;28;20046;-67
2023/01/11 04:05:42;;;;;;;1.30;0.82;;;13.80;99.90;;;;;;5050270;28;20470;-69
2023/01/11 04:08:09;;;;;;;1.15;0.85;;;13.80;99.40;;;;;;5037673;28;20063;-71
2023/01/11 04:10:36;;;;;;;1.73;0.80;;;13.80;99.90;;;;;;5036183;28;20045;-71
2023/01/11 04:13:02;;;;;;;1.02;0.52;;;;;;;;;;5021846;28;20124;-71
2023/01/11 04:15:30;;;;;;;2.15;0.73;;;;;;;;;;5057037;28;20391;-70
2023/01/11 04:18:03;;;;;;;1.25;0.90;;;;;;;;;;5055877;28;20155;-70
2023/01/11 04:20:32;;;;;;;;;;;13.70;99.40;;;;;;5053756;28;20076;-72
2023/01/11 04:22:58;;;;;;;2.25;0.85;;;;;;;;;;5052560;28;20330;-71
2023/01/11 04:25:24;;;;;;;1.10;0.80;;;13.90;99.50;;;;;;5034979;28;20041;-70
2023/01/11 04:27:50;;;;;;;1.45;0.60;;;13.90;99.90;;;;;;5036164;28;20575;-73
2023/01/11 04:30:15;;;;;;;1.30;0.88;;;13.70;99.90;;;;;;5035581;28;20045;-70
2023/01/11 04:32:41;;;;;;;1.75;0.80;;;13.80;99.90;;;;;;5042485;28;20139;-73
2023/01/11 04:35:08;;;;;;;1.92;0.90;;;;;;;;;;5055494;28;20463;-71
2023/01/11 04:37:34;;;;;;;1.23;0.70;;;;;;;;;;5021113;28;20139;-69
2023/01/11 04:40:00;;;;;;;1.10;0.57;;;;;;;;;;5036930;28;20041;-67
2023/01/11 04:42:26;;;;;;;1.30;0.63;;;;;;;;;;5055417;28;20479;-73
2023/01/11 04:44:52;;;;;;;0.73;0.47;;;13.90;99.30;;;;;;5022475;28;20053;-60
2023/01/11 04:47:21;;;;;;;1.67;0.70;;;14.00;99.00;;;;;;5039116;28;20041;-71
2023/01/11 04:49:47;;;;;;;0.47;0.40;;;;;;;;;;5021666;28;20394;-71
2023/01/11 04:52:13;;;;;;;1.08;0.50;;;;;;;;;;5048917;28;20049;-74
2023/01/11 04:54:39;;;;;;;0.90;0.40;;;;;;;;;;5021353;28;20124;-71
2023/01/11 04:57:05;;;;;;;1.52;0.30;;;13.60;99.70;;;;;;5037356;28;20060;-73
2023/01/11 04:59:31;;;;;;;0.82;0.35;;;;;;;;;;5054888;28;20410;-73
2023/01/11 05:01:58;;;;;;;0.52;0.30;;;;;;;;;;5035543;28;20044;-72
2023/01/11 05:04:23;;;;;;;0.98;0.40;;;14.10;99.90;;;;;;5055327;28;20041;-72
2023/01/11 05:06:49;;;;;;;1.17;0.40;;;;;;;;;;5053764;28;20475;-70
2023/01/11 05:09:16;;;;;;;1.85;0.50;;;;;;;;;;5037341;28;20134;-72
2023/01/11 05:11:42;;;;;;;1.00;0.43;;;;;;;;;;5053918;28;20040;-72
2023/01/11 05:14:08;;;;;;;1.48;0.50;;;;;;;;;;5036998;28;20053;-72
2023/01/11 05:16:35;;;;;;;2.15;0.50;;;;;;;;;;5053945;28;20045;-73
2023/01/11 05:19:01;;;;;;;1.92;0.47;;;;;;;;;;5020019;28;20091;-72
2023/01/11 05:21:28;;;;;;;1.83;0.60;;;;;;;;;;5016722;28;20541;-70
2023/01/11 05:23:54;;;;;;;0.75;0.38;;;;;;;;;;5020201;28;20503;-70
2023/01/11 05:26:22;;;;;;;3.13;0.52;;;14.20;98.80;;;;;;5032335;28;20067;-63
2023/01/11 05:28:48;;;;;;;0.93;0.60;;;;;;;;;;5036938;28;20055;-71
2023/01/11 05:31:14;;;;;;;1.35;0.40;;;14.30;99.90;;;;;;5050141;28;20061;-72
2023/01/11 05:33:40;;;;;;;1.25;0.65;;;14.20;99.90;;;;;;5055227;28;20455;-71
2023/01/11 05:36:07;;;;;;;2.35;0.60;;;;;;;;;;5037138;28;20084;-71
2023/01/11 05:38:33;;;;;;;1.38;0.50;;;14.20;99.90;;;;;;5048721;28;20048;-72
2023/01/11 05:41:00;;;;;;;3.00;0.75;;;14.10;99.90;;;;;;5035764;28;20092;-72
2023/01/11 05:43:27;;;;;;;1.05;0.40;;;;;;;;;;5038321;28;20486;-72
2023/01/11 05:45:52;;;;;;;2.67;0.50;;;14.30;99.90;;;;;;5049842;28;20045;-73
2023/01/11 05:48:19;;;;;;;0.75;0.40;;;;;;;;;;5034599;28;20103;-71
2023/01/11 05:50:52;;;;;;;1.10;0.50;;;14.10;98.80;;;;;;5034509;28;20435;-72
2023/01/11 05:53:18;;;;;;;1.05;0.52;;;14.00;99.70;;;;;;5035539;28;20051;-72
2023/01/11 05:55:56;;;;;;;1.95;0.60;;;14.20;99.80;;;;;;5053117;28;20037;-70
2023/01/11 05:58:22;;;;;;;1.58;0.57;;;14.20;99.90;;;;;;5053395;28;20045;-70
2023/01/11 06:00:49;;;;;;;1.05;0.47;;;14.30;99.90;;;;;;5054404;28;20041;-71
2023/01/11 06:03:15;;;;;;;1.55;0.50;;;14.20;99.80;;;;;;5053287;28;20414;-72
2023/01/11 06:05:41;;;;;;;2.83;0.60;;;14.40;99.80;;;;;;5036115;28;20044;-72
2023/01/11 06:08:07;;;;;;;1.90;0.60;;;14.30;99.70;;;;;;5033249;28;20118;-70
2023/01/11 06:10:33;;;;;;;2.13;0.40;;;;;;;;;;5016156;28;20120;-72
2023/01/11 06:15:43;;;;;;;3.05;0.70;;;14.20;99.80;;;;;;5034879;28;20037;-71
2023/01/11 06:18:09;;;;;;;2.85;0.95;;;;;;;;;;5033783;28;20368;-71
2023/01/11 06:20:35;;;;;;;2.17;0.70;;;14.30;99.80;;;;;;5050235;28;20045;-71
2023/01/11 06:23:01;;;;;;;2.40;0.52;;;;;;;;;;5034639;28;20114;-72
2023/01/11 06:25:29;;;;;;;3.00;0.90;;;14.20;99.60;;;;;;5035524;28;20041;-72
2023/01/11 06:27:55;;;;;;;2.67;0.90;;;;;;;;;;5052468;28;20040;-71
2023/01/11 06:30:24;;;;;;;2.75;0.73;;;;;;;;;;5052571;28;20083;-70
2023/01/11 06:32:51;;;;;;;2.63;0.80;;;14.30;99.80;;;;;;5033161;28;20061;-71
2023/01/11 06:35:17;;;;;;;5.07;1.30;;;14.40;99.70;;;;;;5033059;28;20095;-72
2023/01/11 06:37:43;;;;;;;2.33;1.17;;;14.00;99.50;;;;;;5052076;28;20041;-72
2023/01/11 06:40:09;;;;;;;3.67;0.73;;;14.30;99.50;;;;;;5039177;28;20049;-72
2023/01/11 06:42:35;;;;;;;2.78;0.85;;;14.00;99.60;;;;;;5048113;28;20048;-71
2023/01/11 06:45:01;;;;;;;2.45;1.00;;;14.20;99.70;;;;;;5047328;28;20038;-72
2023/01/11 06:47:26;;;;;;;4.38;1.20;;;14.50;99.60;;;;;;5073332;28;20044;-72
2023/01/11 06:49:52;;;;;;;3.85;0.95;;;14.20;98.50;;;;;;5071970;28;20044;-70
2023/01/11 06:52:18;;;;;;;3.45;0.98;;;14.20;98.50;;;;;;5053542;28;20091;-72
2023/01/11 06:54:44;;;;;;;4.15;0.95;;;;;;;;;;5045410;28;20047;-71
2023/01/11 06:57:10;;;;;;;4.43;1.20;;;;;;;;;;5035482;28;20132;-69
2023/01/11 06:59:38;;;;;;;3.38;1.05;;;;;;;;;;5052830;28;20083;-72
2023/01/11 07:02:04;;;;;;;4.22;1.27;;;14.00;99.30;;;;;;5016406;28;20045;-72
2023/01/11 07:04:31;;;;;;;4.82;1.60;;;;;;;;;;5020082;28;20045;-73
2023/01/11 07:06:57;;;;;;;4.80;1.15;;;14.70;98.50;;;;;;5044561;28;20041;-70
2023/01/11 07:09:22;;;;;;;3.10;0.80;;;14.00;99.40;;;;;;5041423;28;20497;-72
2023/01/11 07:11:48;;;;;;;6.65;1.75;;;14.60;99.60;;;;;;5034754;28;20045;-72
2023/01/11 07:14:19;;;;;;;4.60;1.00;;;;;;;;;;5034508;28;20410;-73
2023/01/11 07:16:46;;;;;;;6.22;1.20;;;14.30;99.40;;;;;;5049668;28;20049;-72
2023/01/11 07:19:12;;;;;;;6.22;1.48;;;14.20;98.30;;;;;;5037777;28;20124;-72
2023/01/11 07:21:37;;;;;;;5.60;1.17;;;14.50;99.60;;;;;;5033373;28;20129;-71
2023/01/11 07:24:04;;;;;;;3.85;1.15;;;14.40;99.50;;;;;;5016317;28;20049;-71
2023/01/11 07:26:31;;;;;;;3.80;1.30;;;14.10;99.30;;;;;;5053125;28;20049;-72
2023/01/11 07:28:57;;;;;;;4.88;1.17;;;14.30;99.30;;;;;;5052922;28;20123;-72
2023/01/11 07:31:23;;;;;;;6.40;1.38;;;14.20;99.30;;;;;;5051304;28;20183;-72
2023/01/11 07:33:49;;;;;;;4.47;1.25;;;14.30;99.40;;;;;;5035134;28;20133;-71
2023/01/11 07:36:15;;;;;;;5.15;1.65;;;14.40;99.40;;;;;;5038893;28;20049;-72
2023/01/11 07:38:41;;;;;;;4.32;1.25;;;14.40;99.40;;;;;;5052614;28;20486;-72
2023/01/11 07:43:51;;;;;;;6.03;1.33;;;14.60;99.30;;;;;;5047825;28;20041;-70
2023/01/11 07:46:16;;;;;;;4.85;1.38;;;14.50;99.40;;;;;;5049657;28;20041;-71
2023/01/11 07:48:42;;;;;;;4.90;1.20;;;14.40;98.30;;;;;;5036882;28;20475;-72
2023/01/11 07:51:08;;;;;;;8.25;1.65;;;;;;;;;;5048245;28;20041;-71
2023/01/11 07:53:35;;;;;;;5.88;1.30;;;;;;;;;;5037262;28;20041;-70
2023/01/11 07:56:01;;;;;;;5.07;1.25;;;;;;;;;;5034027;28;20053;-72
2023/01/11 07:58:27;;;;;;;7.15;1.63;;;;;;;;;;5036663;28;20060;-70
2023/01/11 08:00:53;;;;;;;5.90;1.77;;;;;;;;;;5035978;28;20065;-71
2023/01/11 08:03:19;;;;;;;6.13;1.75;;;;;;;;;;5045482;28;20134;-73
2023/01/11 08:05:51;;;;;;;5.18;1.23;;;14.20;99.30;;;;;;5056259;28;20052;-71
2023/01/11 08:08:17;;;;;;;6.30;1.48;;;14.40;99.20;;;;;;5026794;28;20053;-71
2023/01/11 08:10:42;;;;;;;5.85;1.42;;;14.60;99.30;;;;;;5020105;28;20091;-72
2023/01/11 08:15:57;;;;;;;6.07;1.33;;;14.50;99.50;;;;;;5028772;28;20408;-71
2023/01/11 08:18:23;;;;;;;4.85;1.58;;;;;;;;;;5035871;28;20049;-73
2023/01/11 08:20:51;;;;;;;4.40;1.20;;;14.50;99.30;;;;;;5018766;28;20433;-72
2023/01/11 08:23:17;;;;;;;5.90;1.27;;;;;;;;;;5018500;28;20558;-73
2023/01/11 08:25:43;;;;;;;6.38;1.60;;;14.80;97.70;;;;;;5049574;28;20092;-69
2023/01/11 08:28:09;;;;;;;3.72;1.13;;;14.70;99.20;;;;;;5018187;28;20049;-70
2023/01/11 08:30:35;;;;;;;5.97;1.35;;;14.20;99.10;;;;;;5036127;28;20051;-71
2023/01/11 08:33:02;;;;;;;6.28;1.48;;;;;;;;;;5035822;28;20064;-72
2023/01/11 08:35:28;;;;;;;5.35;1.52;;;14.60;99.30;;;;;;5053869;28;20096;-71
2023/01/11 08:37:53;;;;;;;4.38;1.42;;;14.70;99.20;;;;;;5053612;28;20041;-70
2023/01/11 08:40:19;;;;;;;5.78;2.00;;;14.70;99.20;;;;;;5053745;28;20041;-74
2023/01/11 08:42:45;;;;;;;3.33;1.25;;;14.70;99.20;;;;;;5036139;28;20041;-70
2023/01/11 08:45:11;;;;;;;5.05;1.17;;;;;;;;;;5032058;28;20061;-70
2023/01/11 08:47:38;;;;;;;4.53;1.63;;;;;;;;;;5036738;28;20037;-70
2023/01/11 08:50:04;;;;;;;5.18;1.63;;;14.80;99.40;;;;;;5054919;28;20423;-71
2023/01/11 08:52:30;;;;;;;6.60;1.60;;;14.90;99.30;;;;;;5021228;28;20095;-71
2023/01/11 08:54:56;;;;;;;9.98;2.00;;;;;;;;;;5053607;28;20450;-71
2023/01/11 08:57:22;;;;;;;7.22;1.92;;;14.80;99.20;;;;;;5052121;28;20037;-70
2023/01/11 08:59:48;;;;;;;6.18;1.63;;;14.50;98.10;;;;;;5036787;28;20053;-69
2023/01/11 09:02:14;;;;;;;9.30;1.63;;;14.80;99.30;;;;;;5036597;28;20048;-71
2023/01/11 09:04:41;;;;;;;7.18;1.58;;;;;;;;;;5049189;28;20585;-71
2023/01/11 09:07:06;;;;;;;9.70;1.70;;;15.20;99.30;;;;;;5036663;28;20502;-72
2023/01/11 09:09:32;;;;;;;6.28;1.75;;;14.80;99.20;;;;;;5054425;28;20048;-72
2023/01/11 09:12:01;;;;;;;6.60;1.50;;;14.80;98.20;;;;;;5055268;28;20041;-70
2023/01/11 09:14:27;;;;;;;6.55;1.67;;;14.90;99.20;;;;;;5053803;28;20058;-71
2023/01/11 09:16:53;;;;;;;6.80;1.73;;;14.90;99.30;;;;;;5020458;28;20053;-72
2023/01/11 09:19:19;;;;;;;7.32;1.90;;;15.00;99.30;;;;;;5035045;28;20042;-72
2023/01/11 09:21:45;;;;;;;7.18;2.20;;;14.90;99.30;;;;;;5047244;28;20486;-70
2023/01/11 09:24:11;;;;;;;5.47;1.55;;;14.90;99.20;;;;;;5020253;28;20083;-71
2023/01/11 09:26:37;;;;;;;6.95;1.58;;;14.80;99.40;;;;;;5054610;28;20044;-71
2023/01/11 09:29:03;;;;;;;6.47;1.85;;;14.50;99.30;;;;;;5031649;28;20099;-72
2023/01/11 09:31:30;;;;;;;7.80;1.77;;;14.40;99.10;;;;;;5043579;28;20057;-71
2023/01/11 09:33:56;;;;;;;9.32;2.45;;;14.80;99.20;;;;;;5035267;28;20475;-72
2023/01/11 09:36:26;;;;;;;8.75;2.33;;;14.70;97.20;;;;;;5038385;28;20045;-70
2023/01/11 09:38:56;;;;;;;8.65;2.05;;;;;;;;;;5054321;28;20571;-70
2023/01/11 09:41:23;;;;;;;5.97;1.67;;;;;;;;;;5051192;28;20036;-74
2023/01/11 09:44:15;;;;;;;8.63;2.10;;;14.80;98.00;;;;;;5052786;28;20406;-71
2023/01/11 09:46:42;;;;;;;9.02;2.00;;;14.80;97.80;;;;;;5027419;28;20049;-73
2023/01/11 09:49:15;;;;;;;9.27;2.13;;;14.70;97.70;;;;;;5035426;28;20406;-73
2023/01/11 09:51:42;;;;;;;7.93;2.08;;;14.90;99.10;;;;;;5036468;28;20051;-73
2023/01/11 09:54:10;;;;;;;6.97;1.88;;;14.90;98.10;;;;;;5054836;28;20041;-72
2023/01/11 09:56:42;;;;;;;7.82;2.22;;;14.70;98.00;;;;;;5037818;28;20370;-71
2023/01/11 09:59:19;;;;;;;4.77;1.97;;;;;;;;;;5036516;28;20486;-72
2023/01/11 10:02:10;;;;;;;6.82;1.80;;;14.90;97.20;;;;;;5032817;28;20403;-71
2023/01/11 10:04:55;;;;;;;10.18;2.50;;;15.00;99.10;;;;;;5036277;28;20395;-72
2023/01/11 10:07:36;;;;;;;7.72;2.00;;;15.00;97.20;;;;;;5017677;28;20041;-70
2023/01/11 10:10:02;;;;;;;5.95;1.70;;;14.80;98.80;;;;;;5046543;28;20053;-72
2023/01/11 10:12:42;;;;;;;7.85;2.20;;;;;;;;;;5033493;28;20091;-66
2023/01/11 10:15:14;;;;;;;7.57;1.75;;;15.10;97.60;;;;;;5049542;28;20044;-70
2023/01/11 10:17:51;;;;;;;6.60;1.83;;;14.90;97.50;;;;;;5026787;28;22019;-68
2023/01/11 10:20:23;;;;;;;5.95;1.90;;;15.00;98.90;;;;;;5052979;28;20105;-70
2023/01/11 10:22:51;;;;;;;9.17;1.80;;;15.20;97.60;;;;;;5075245;28;20378;-75
2023/01/11 10:25:25;;;;;;;6.82;1.85;;;15.00;97.50;;;;;;5037780;28;20056;-76
2023/01/11 10:27:57;;;;;;;6.32;1.75;;;;;;;;;;5037545;28;20053;-76
2023/01/11 10:31:05;;;;;;;7.50;1.90;;;;;;;;;;5052347;28;20042;-76
2023/01/11 10:34:00;;;;;;;7.35;1.80;;;15.40;97.90;;;;;;5050021;28;20397;-76
2023/01/11 10:42:22;;;;;;;9.98;1.90;;;15.50;97.70;;;;;;5022004;28;20487;-72
2023/01/11 10:44:55;;;;;;;6.80;1.90;;;;;;;;;;5017292;28;20038;-74
2023/01/11 10:47:21;;;;;;;10.00;2.33;;;;;;;;;;5013254;28;20052;-67
2023/01/11 10:49:51;;;;;;;8.45;1.70;;;15.30;97.60;;;;;;4998005;28;20392;-66
2023/01/11 10:52:26;;;;;;;8.27;1.92;;;15.60;97.30;;;;;;4996647;28;20069;-74
2023/01/11 10:54:56;;;;;;;8.25;2.38;;;15.80;99.20;;;;;;5026761;28;20373;-65
2023/01/11 10:57:30;;;;;;;8.15;2.60;;;;;;;;;;5032728;28;20090;-71
2023/01/11 11:00:06;;;;;;;8.77;1.90;;;;;;;;;;4996273;28;20121;-67
2023/01/11 11:02:54;;;;;;;6.50;1.58;;;15.70;97.40;;;;;;5012973;28;20060;-73
2023/01/11 11:05:33;;;;;;;6.45;1.83;;;15.80;97.30;;;;;;5031745;28;20124;-66
2023/01/11 11:08:10;;;;;;;7.32;1.77;;;15.80;97.20;;;;;;5025448;28;20073;-63
2023/01/11 11:10:59;;;;;;;7.78;1.58;;;16.10;97.40;;;;;;5028920;28;20049;-62
2023/01/11 11:13:43;;;;;;;6.97;1.90;;;16.00;97.10;;;;;;5032213;28;20049;-73
2023/01/11 11:16:12;;;;;;;7.20;1.98;;;15.80;99.10;;;;;;5014731;28;20056;-73
2023/01/11 11:18:38;;;;;;;7.28;1.63;;;16.20;99.10;;;;;;5018669;28;20080;-72
2023/01/11 11:21:09;;;;;;;7.38;1.80;;;16.10;97.80;;;;;;5034009;28;20080;-72
2023/01/11 11:23:35;;;;;;;7.85;2.05;;;15.80;97.70;;;;;;5036072;28;20045;-73
2023/01/11 11:26:01;;;;;;;9.00;1.85;;;16.20;99.30;;;;;;5033735;28;20045;-67
2023/01/11 11:28:31;;;;;;;7.82;1.80;;;16.10;97.00;;;;;;5003229;28;20041;-76
2023/01/11 11:30:59;;;;;;;7.32;2.10;;;16.40;99.10;;;;;;5047125;28;20442;-71
2023/01/11 11:33:33;;;;;;;8.93;3.10;;;16.30;99.10;;;;;;5059739;28;20115;-72
2023/01/11 11:36:03;;;;;;;8.45;1.80;;;16.20;99.10;;;;;;5076246;28;20045;-71
2023/01/11 11:38:34;;;;;;;7.25;2.17;;;16.30;97.70;;;;;;5048911;28;20099;-75
2023/01/11 11:41:11;;;;;;;7.75;1.75;;;16.20;99.00;;;;;;5054199;28;20116;-70
2023/01/11 11:43:44;;;;;;;8.95;2.03;;;16.30;99.00;;;;;;5076042;28;20051;-63
2023/01/11 11:46:12;;;;;;;6.15;1.75;;;16.30;98.30;;;;;;5071343;28;20052;-73
2023/01/11 11:48:38;;;;;;;7.00;1.50;;;15.80;98.50;;;;;;5053829;28;20044;-72
2023/01/11 11:51:05;;;;;;;7.82;2.20;;;;;;;;;;5036451;28;20045;-63
2023/01/11 11:53:54;;;;;;;9.48;2.13;;;;;;;;;;5033702;28;20041;-76
2023/01/11 11:56:33;;;;;;;7.20;1.73;;;16.20;97.60;;;;;;5035548;28;20491;-71
2023/01/11 11:59:04;;;;;;;10.07;2.05;;;;;;;;;;5047488;28;20053;-61
2023/01/11 12:01:31;;;;;;;12.43;2.30;;;16.00;99.10;;;;;;5054966;28;20119;-70
2023/01/11 12:04:09;;;;;;;7.72;2.20;;;15.90;97.30;;;;;;5041198;28;20106;-61
2023/01/11 12:06:35;;;;;;;8.85;2.13;;;15.90;99.00;;;;;;5035536;28;20132;-71
2023/01/11 12:09:01;;;;;;;10.32;2.30;;;;;;;;;;5041692;28;20128;-76
2023/01/11 12:11:34;;;;;;;7.05;2.00;;;15.80;98.50;;;;;;5037275;28;20041;-72
2023/01/11 12:14:14;;;;;;;6.85;1.75;;;16.10;97.30;;;;;;5036821;28;20053;-73
2023/01/11 12:16:40;;;;;;;8.90;2.38;;;15.70;98.40;;;;;;5037189;28;20106;-71
2023/01/11 12:19:41;;;;;;;11.43;2.38;;;15.80;96.50;;;;;;5037092;28;20422;-73
2023/01/11 12:22:13;;;;;;;9.55;2.47;;;15.80;98.30;;;;;;5036105;28;20051;-73
2023/01/11 12:24:38;;;;;;;7.78;2.22;;;15.60;98.20;;;;;;5035160;28;20049;-73
2023/01/11 12:27:14;;;;;;;8.20;2.15;;;15.80;98.30;;;;;;5069953;28;20099;-71
2023/01/11 12:30:25;;;;;;;9.93;2.45;;;15.70;97.00;;;;;;5052027;28;20052;-74
2023/01/11 12:33:17;;;;;;;9.18;2.60;;;15.80;97.00;;;;;;5051622;28;20049;-71
2023/01/11 12:35:54;;;;;;;7.82;2.33;;;16.00;98.20;;;;;;5054865;28;20057;-72
2023/01/11 12:38:29;;;;;;;9.32;2.40;;;15.80;97.20;;;;;;5052499;28;20048;-71
2023/01/11 12:41:42;;;;;;;10.60;2.55;;;15.90;96.20;;;;;;5054696;28;20144;-73
2023/01/11 12:44:38;;;;;;;9.23;2.58;;;15.70;96.10;;;;;;5054917;28;20056;-72
2023/01/11 12:47:08;;;;;;;8.80;2.47;;;16.00;97.90;;;;;;5055378;28;20464;-74
2023/01/11 12:49:59;;;;;;;9.95;2.13;;;15.70;97.80;;;;;;5055128;28;20403;-74
2023/01/11 12:52:46;;;;;;;7.35;2.10;;;15.80;96.00;;;;;;5023036;28;20403;-72
2023/01/11 12:55:32;;;;;;;9.05;2.25;;;15.90;97.90;;;;;;5051323;28;20510;-73
2023/01/11 12:58:06;;;;;;;12.23;2.10;;;15.80;97.80;;;;;;5037731;28;20041;-71
2023/01/11 13:00:50;;;;;;;11.00;2.85;;;15.80;96.50;;;;;;5022523;28;20482;-72
2023/01/11 13:03:33;;;;;;;9.32;2.15;;;15.90;97.70;;;;;;5035599;28;20049;-72
2023/01/11 13:06:20;;;;;;;12.80;2.60;;;15.70;95.80;;;;;;5051662;28;20095;-71
2023/01/11 13:09:07;;;;;;;7.70;2.10;;;15.70;96.40;;;;;;5052097;28;20108;-74
2023/01/11 13:11:39;;;;;;;9.82;2.28;;;15.50;97.70;;;;;;5054107;28;20536;-65
2023/01/11 13:14:26;;;;;;;10.13;2.10;;;15.60;95.80;;;;;;5044657;28;20049;-73
2023/01/11 13:17:10;;;;;;;7.30;2.10;;;15.50;95.70;;;;;;5035447;28;20046;-74
2023/01/11 13:19:39;;;;;;;10.68;2.38;;;15.70;97.50;;;;;;5035399;28;20128;-73
2023/01/11 13:22:09;;;;;;;10.73;2.78;;;15.70;97.40;;;;;;5035402;28;20042;-75
2023/01/11 13:24:36;;;;;;;9.45;2.42;;;;;;;;;;5030225;28;20178;-76
2023/01/11 13:27:04;;;;;;;7.82;1.95;;;15.50;95.90;;;;;;5043946;28;20410;-77
2023/01/11 13:29:34;;;;;;;12.48;2.65;;;15.80;97.30;;;;;;5056719;28;20110;-77
2023/01/11 13:32:03;;;;;;;10.45;2.70;;;16.00;96.00;;;;;;5022593;28;20514;-73
2023/01/11 13:34:29;;;;;;;6.88;2.53;;;;;;;;;;5033884;28;20057;-65
2023/01/11 13:36:57;;;;;;;11.35;2.53;;;15.70;95.90;;;;;;5035353;28;20053;-73
2023/01/11 13:39:36;;;;;;;10.38;2.75;;;15.80;95.90;;;;;;5033319;28;20057;-74
2023/01/11 13:42:35;;;;;;;10.18;2.55;;;15.90;96.00;;;;;;5036722;28;20081;-74
2023/01/11 13:45:20;;;;;;;9.90;2.30;;;15.70;97.20;;;;;;5015756;28;20054;-74
2023/01/11 13:48:07;;;;;;;8.55;2.20;;;;;;;;;;5034797;28;20049;-75
2023/01/11 13:50:56;;;;;;;8.32;2.22;;;15.80;95.80;;;;;;5052658;28;20037;-77
2023/01/11 13:53:23;;;;;;;16.05;3.40;;;;;;;;;;5045718;28;20466;-76
2023/01/11 13:56:14;;;;;;;9.27;2.58;;;15.60;95.80;;;;;;5020764;28;20438;-72
2023/01/11 13:58:46;;;;;;;10.77;2.53;;;15.70;97.00;;;;;;5032722;28;20526;-63
2023/01/11 14:01:22;;;;;;;8.10;2.38;;;15.70;97.00;;;;;;5034409;28;20048;-71
2023/01/11 14:03:55;;;;;;;11.50;2.72;;;;;;;;;;5032853;28;20056;-73
2023/01/11 14:06:33;;;;;;;;;;;15.80;95.60;;;;;;5053836;28;20120;-70